createdAt,value
2023-05-09T00:01:41.982Z,101467.19
2023-05-09T00:04:13.587Z,101462.67
2023-05-09T00:06:45.316Z,101463.55
2023-05-09T00:09:17.001Z,101466.95
2023-05-09T00:11:49.485Z,101468.59
2023-05-09T00:14:21.430Z,101465.95
2023-05-09T00:16:54.057Z,101459.09
2023-05-09T00:19:25.675Z,101460.61
2023-05-09T00:21:57.230Z,101462.02
2023-05-09T00:24:28.762Z,101454.75
2023-05-09T00:27:00.317Z,101455.61
2023-05-09T00:29:31.896Z,101460.44
2023-05-09T00:32:03.444Z,101460.92
2023-05-09T00:34:34.947Z,101462.41
2023-05-09T00:37:07.393Z,101461.45
2023-05-09T00:39:39.189Z,101462.83
2023-05-09T00:42:12.056Z,101461.23
2023-05-09T00:44:44.585Z,101459.43
2023-05-09T00:47:16.183Z,101458.96
2023-05-09T00:49:47.956Z,101458.60
2023-05-09T00:52:23.484Z,101457.51
2023-05-09T00:54:56.444Z,101461.91
2023-05-09T00:57:28.157Z,101460.73
2023-05-09T00:59:59.773Z,101460.77
2023-05-09T01:02:31.992Z,101459.15
2023-05-09T01:05:03.726Z,101460.52
2023-05-09T01:07:39.702Z,101458.14
2023-05-09T01:10:17.958Z,101455.74
2023-05-09T01:12:56.462Z,101454.11
2023-05-09T01:15:35.867Z,101454.90
2023-05-09T01:18:13.338Z,101453.86
2023-05-09T01:20:49.112Z,101453.57
2023-05-09T01:23:48.551Z,101450.25
2023-05-09T01:26:27.161Z,101449.17
2023-05-09T01:29:25.262Z,101447.58
2023-05-09T01:31:59.877Z,101448.30
2023-05-09T01:34:34.035Z,101444.67
2023-05-09T01:37:08.697Z,101446.87
2023-05-09T01:39:43.901Z,101448.35
2023-05-09T01:42:18.941Z,101442.55
2023-05-09T01:44:51.381Z,101442.94
2023-05-09T01:47:24.899Z,101438.62
2023-05-09T01:49:57.901Z,101440.35
2023-05-09T01:52:31.142Z,101444.72
2023-05-09T01:55:06.526Z,101440.83
2023-05-09T01:57:39.297Z,101438.95
2023-05-09T02:00:14.619Z,101439.39
2023-05-09T02:02:47.598Z,101438.60
2023-05-09T02:05:21.065Z,101439.36
2023-05-09T02:07:53.755Z,101439.47
2023-05-09T02:10:28.114Z,101436.91
2023-05-09T02:12:59.870Z,101438.86
2023-05-09T02:15:33.495Z,101436.91
2023-05-09T02:18:06.105Z,101437.17
2023-05-09T02:20:37.576Z,101434.39
2023-05-09T02:23:09.693Z,101432.91
2023-05-09T02:25:42.230Z,101430.25
2023-05-09T02:28:14.969Z,101430.60
2023-05-09T02:30:49.025Z,101428.17
2023-05-09T02:33:21.549Z,101428.86
2023-05-09T02:35:54.734Z,101428.45
2023-05-09T02:38:27.502Z,101425.66
2023-05-09T02:40:59.425Z,101426.48
2023-05-09T02:43:31.117Z,101428.52
2023-05-09T02:46:02.541Z,101428.67
2023-05-09T02:48:34.284Z,101428.14
2023-05-09T02:51:06.133Z,101426.51
2023-05-09T02:53:37.780Z,101425.67
2023-05-09T02:56:11.182Z,101426.41
2023-05-09T02:58:42.577Z,101421.88
2023-05-09T03:01:14.027Z,101427.20
2023-05-09T03:03:46.351Z,101425.85
2023-05-09T03:06:18.794Z,101427.04
2023-05-09T03:08:50.341Z,101425.55
2023-05-09T03:11:22.293Z,101429.93
2023-05-09T03:13:53.783Z,101431.61
2023-05-09T03:16:25.355Z,101440.19
2023-05-09T03:18:56.884Z,101437.84
2023-05-09T03:21:29.831Z,101441.98
2023-05-09T03:24:01.438Z,101437.04
2023-05-09T03:26:33.074Z,101439.27
2023-05-09T03:29:04.647Z,101438.83
2023-05-09T03:31:36.385Z,101440.44
2023-05-09T03:34:13.276Z,101434.25
2023-05-09T03:36:45.210Z,101431.07
2023-05-09T03:39:16.835Z,101434.61
2023-05-09T03:41:49.125Z,101433.91
2023-05-09T03:44:21.231Z,101432.48
2023-05-09T03:46:53.460Z,101426.75
2023-05-09T03:49:28.862Z,101423.15
2023-05-09T03:52:05.241Z,101420.85
2023-05-09T03:54:40.433Z,101421.58
2023-05-09T03:57:11.952Z,101423.58
2023-05-09T03:59:43.485Z,101428.04
2023-05-09T04:02:15.425Z,101424.08
2023-05-09T04:04:47.632Z,101425.45
2023-05-09T04:07:19.451Z,101427.56
2023-05-09T04:09:51.212Z,101424.20
2023-05-09T04:12:22.644Z,101427.45
2023-05-09T04:14:54.276Z,101432.05
2023-05-09T04:17:26.230Z,101428.32
2023-05-09T04:19:57.909Z,101425.70
2023-05-09T04:22:29.764Z,101425.00
2023-05-09T04:25:05.726Z,101420.63
2023-05-09T04:27:37.630Z,101420.52
2023-05-09T04:30:11.619Z,101421.46
2023-05-09T04:32:46.462Z,101424.83
2023-05-09T04:35:20.698Z,101422.27
2023-05-09T04:37:50.825Z,101421.86
2023-05-09T04:40:22.974Z,101416.91
2023-05-09T04:42:57.610Z,101415.14
2023-05-09T04:45:29.462Z,101416.96
2023-05-09T04:48:01.527Z,101420.00
2023-05-09T04:50:33.566Z,101422.52
2023-05-09T04:53:05.305Z,101422.65
2023-05-09T04:55:36.991Z,101423.14
2023-05-09T04:58:09.556Z,101418.95
2023-05-09T05:00:42.771Z,101424.02
2023-05-09T05:03:14.308Z,101426.89
2023-05-09T05:05:45.975Z,101425.76
2023-05-09T05:08:17.537Z,101426.25
2023-05-09T05:10:49.997Z,101424.02
2023-05-09T05:13:22.201Z,101427.55
2023-05-09T05:15:54.187Z,101425.56
2023-05-09T05:18:25.957Z,101427.59
2023-05-09T05:20:57.862Z,101425.58
2023-05-09T05:23:29.556Z,101427.16
2023-05-09T05:26:01.369Z,101427.21
2023-05-09T05:28:33.615Z,101429.34
2023-05-09T05:31:05.325Z,101428.53
2023-05-09T05:33:37.160Z,101428.14
2023-05-09T05:36:11.086Z,101421.54
2023-05-09T05:38:43.056Z,101426.18
2023-05-09T05:41:16.032Z,101425.30
2023-05-09T05:43:47.731Z,101426.80
2023-05-09T05:46:19.497Z,101426.89
2023-05-09T05:48:51.499Z,101429.44
2023-05-09T05:51:23.622Z,101427.78
2023-05-09T05:53:55.400Z,101424.11
2023-05-09T05:56:27.019Z,101426.09
2023-05-09T05:58:58.504Z,101424.34
2023-05-09T06:01:30.649Z,101419.31
2023-05-09T06:04:02.369Z,101422.80
2023-05-09T06:06:34.625Z,101421.40
2023-05-09T06:09:06.504Z,101419.84
2023-05-09T06:11:40.174Z,101416.84
2023-05-09T06:14:12.586Z,101420.37
2023-05-09T06:16:44.504Z,101419.44
2023-05-09T06:19:16.218Z,101417.10
2023-05-09T06:21:48.368Z,101417.81
2023-05-09T06:24:31.661Z,101416.03
2023-05-09T06:27:07.710Z,101419.80
2023-05-09T06:29:41.026Z,101418.14
2023-05-09T06:32:12.586Z,101415.45
2023-05-09T06:34:44.338Z,101415.60
2023-05-09T06:37:16.052Z,101410.77
2023-05-09T06:39:47.957Z,101409.38
2023-05-09T06:42:19.501Z,101411.66
2023-05-09T06:44:51.104Z,101407.14
2023-05-09T06:47:22.800Z,101405.31
2023-05-09T06:49:55.142Z,101404.02
2023-05-09T06:52:26.668Z,101410.31
2023-05-09T06:54:58.219Z,101407.58
2023-05-09T06:57:29.987Z,101407.31
2023-05-09T07:00:01.673Z,101405.25
2023-05-09T07:02:36.413Z,101411.33
2023-05-09T07:05:09.082Z,101406.84
2023-05-09T07:07:41.105Z,101407.45
2023-05-09T07:10:14.961Z,101404.71
2023-05-09T07:12:46.654Z,101401.18
2023-05-09T07:15:28.651Z,101400.73
2023-05-09T07:18:09.206Z,101395.52
2023-05-09T07:20:43.476Z,101393.62
2023-05-09T07:23:15.419Z,101391.22
2023-05-09T07:25:50.009Z,101393.70
2023-05-09T07:28:22.485Z,101387.43
2023-05-09T07:30:54.567Z,101387.29
2023-05-09T07:33:27.360Z,101375.83
2023-05-09T07:36:01.911Z,101378.44
2023-05-09T07:38:32.050Z,101374.31
2023-05-09T07:41:04.085Z,101374.40
2023-05-09T07:43:37.093Z,101373.03
2023-05-09T07:46:09.216Z,101364.42
2023-05-09T07:48:41.087Z,101357.38
2023-05-09T07:51:13.400Z,101361.57
2023-05-09T07:53:46.151Z,101364.54
2023-05-09T07:56:18.147Z,101368.23
2023-05-09T07:58:50.195Z,101370.06
2023-05-09T08:01:22.248Z,101366.45
2023-05-09T08:03:54.772Z,101361.45
2023-05-09T08:06:27.023Z,101356.56
2023-05-09T08:08:59.107Z,101353.30
2023-05-09T08:11:31.156Z,101345.84
2023-05-09T08:14:04.158Z,101342.95
2023-05-09T08:16:36.367Z,101344.48
2023-05-09T08:19:08.576Z,101341.67
2023-05-09T08:21:40.715Z,101336.30
2023-05-09T08:24:12.932Z,101332.67
2023-05-09T08:27:13.947Z,101324.32
2023-05-09T08:29:46.791Z,101330.07
2023-05-09T08:32:20.315Z,101323.17
2023-05-09T08:34:52.793Z,101315.83
2023-05-09T08:37:27.886Z,101317.95
2023-05-09T08:39:59.902Z,101309.58
2023-05-09T08:42:34.319Z,101312.38
2023-05-09T08:45:11.126Z,101314.29
2023-05-09T08:47:43.357Z,101308.33
2023-05-09T08:50:17.791Z,101305.57
2023-05-09T08:52:50.395Z,101305.75
2023-05-09T08:55:22.915Z,101304.27
2023-05-09T08:57:55.700Z,101301.91
2023-05-09T09:00:29.291Z,101295.21
2023-05-09T09:03:02.741Z,101296.58
2023-05-09T09:05:41.750Z,101295.27
2023-05-09T09:08:14.495Z,101300.53
2023-05-09T09:10:47.783Z,101298.09
2023-05-09T09:13:20.232Z,101298.98
2023-05-09T09:15:55.448Z,101294.86
2023-05-09T09:18:31.421Z,101295.02
2023-05-09T09:21:07.979Z,101289.59
2023-05-09T09:23:41.835Z,101285.52
2023-05-09T09:26:14.596Z,101285.05
2023-05-09T09:29:00.035Z,101285.74
2023-05-09T09:31:38.554Z,101283.88
2023-05-09T09:34:10.076Z,101278.71
2023-05-09T09:36:41.891Z,101284.63
2023-05-09T09:39:19.446Z,101282.45
2023-05-09T09:41:56.826Z,101283.60
2023-05-09T09:44:29.707Z,101275.17
2023-05-09T09:47:01.919Z,101269.27
2023-05-09T09:49:34.195Z,101262.87
2023-05-09T09:52:05.896Z,101270.93
2023-05-09T09:54:37.654Z,101266.50
2023-05-09T09:57:09.433Z,101262.48
2023-05-09T09:59:41.235Z,101267.17
2023-05-09T10:02:12.941Z,101261.64
2023-05-09T10:04:45.630Z,101263.48
2023-05-09T10:07:20.908Z,101259.15
2023-05-09T10:09:52.816Z,101253.89
2023-05-09T10:12:24.648Z,101253.73
2023-05-09T10:14:56.842Z,101242.82
2023-05-09T10:17:29.208Z,101241.55
2023-05-09T10:20:01.599Z,101242.59
2023-05-09T10:22:34.123Z,101236.66
2023-05-09T10:25:14.187Z,101242.55
2023-05-09T10:27:49.076Z,101241.23
2023-05-09T10:30:34.072Z,101237.23
2023-05-09T10:33:11.599Z,101229.65
2023-05-09T10:35:49.127Z,101225.13
2023-05-09T10:38:21.481Z,101227.97
2023-05-09T10:40:55.113Z,101228.02
2023-05-09T10:43:27.778Z,101217.64
2023-05-09T10:46:04.433Z,101212.35
2023-05-09T10:48:42.649Z,101216.54
2023-05-09T10:51:17.103Z,101200.63
2023-05-09T10:53:53.116Z,101196.61
2023-05-09T10:56:33.834Z,101195.09
2023-05-09T10:59:05.821Z,101192.45
2023-05-09T11:01:40.614Z,101188.34
2023-05-09T11:04:18.078Z,101196.08
2023-05-09T11:06:52.126Z,101187.78
2023-05-09T11:09:33.517Z,101179.75
2023-05-09T11:12:15.567Z,101173.77
2023-05-09T11:14:49.174Z,101171.79
2023-05-09T11:17:32.487Z,101176.73
2023-05-09T11:20:12.149Z,101167.27
2023-05-09T11:22:47.131Z,101163.61
2023-05-09T11:25:19.883Z,101155.62
2023-05-09T11:28:02.521Z,101159.73
2023-05-09T11:30:46.274Z,101154.28
2023-05-09T11:33:28.872Z,101148.29
2023-05-09T11:36:25.835Z,101141.87
2023-05-09T11:39:08.714Z,101140.77
2023-05-09T11:41:50.929Z,101134.91
2023-05-09T11:44:23.938Z,101136.52
2023-05-09T11:46:55.590Z,101130.43
2023-05-09T11:49:30.267Z,101128.67
2023-05-09T11:52:06.758Z,101133.09
2023-05-09T11:54:39.880Z,101120.59
2023-05-09T11:57:12.069Z,101119.82
2023-05-09T11:59:44.524Z,101108.66
2023-05-09T12:02:17.283Z,101108.58
2023-05-09T12:04:50.544Z,101101.31
2023-05-09T12:07:22.202Z,101103.33
2023-05-09T12:10:21.938Z,101105.03
2023-05-09T12:13:16.362Z,101100.21
2023-05-09T12:15:48.263Z,101085.53
2023-05-09T12:18:31.974Z,101093.39
2023-05-09T12:21:04.199Z,101087.37
2023-05-09T12:23:39.545Z,101090.51
2023-05-09T12:26:13.074Z,101079.46
2023-05-09T12:28:47.149Z,101083.05
2023-05-09T12:31:20.504Z,101079.23
2023-05-09T12:33:53.929Z,101073.86
2023-05-09T12:36:26.680Z,101070.87
2023-05-09T12:38:59.111Z,101074.41
2023-05-09T12:41:39.212Z,101056.62
2023-05-09T12:44:19.939Z,101055.15
2023-05-09T12:47:04.722Z,101048.96
2023-05-09T12:49:38.989Z,101046.39
2023-05-09T12:52:22.050Z,101043.08
2023-05-09T12:54:55.578Z,101040.34
2023-05-09T12:57:31.580Z,101040.25
2023-05-09T13:00:06.969Z,101034.14
2023-05-09T13:02:43.047Z,101030.98
2023-05-09T13:05:19.482Z,101021.67
2023-05-09T13:07:52.989Z,101020.16
2023-05-09T13:10:30.204Z,101025.22
2023-05-09T13:13:02.852Z,101023.02
2023-05-09T13:15:34.641Z,101015.89
2023-05-09T13:18:06.939Z,101009.33
2023-05-09T13:20:39.355Z,101004.48
2023-05-09T13:23:11.186Z,101005.52
2023-05-09T13:25:42.758Z,101000.89
2023-05-09T13:31:30.999Z,100996.45
2023-05-09T13:38:04.924Z,100991.39
2023-05-09T13:40:45.403Z,100985.09
2023-05-09T13:43:17.265Z,100981.77
2023-05-09T13:45:49.910Z,100978.55
2023-05-09T13:48:53.532Z,100973.02
2023-05-09T13:51:35.417Z,100977.90
2023-05-09T13:54:16.181Z,100972.55
2023-05-09T13:56:53.713Z,100970.23
2023-05-09T13:59:30.423Z,100970.64
2023-05-09T14:02:17.548Z,100970.58
2023-05-09T14:05:12.078Z,100964.73
2023-05-09T14:07:43.934Z,100960.86
2023-05-09T14:10:19.056Z,100952.48
2023-05-09T14:12:53.468Z,100955.06
2023-05-09T14:15:36.225Z,100952.84
2023-05-09T14:18:08.620Z,100955.48
2023-05-09T14:20:41.177Z,100954.36
2023-05-09T14:23:14.486Z,100949.83
2023-05-09T14:26:25.976Z,100941.06
2023-05-09T14:29:20.332Z,100943.88
2023-05-09T14:31:51.879Z,100941.27
2023-05-09T14:35:28.453Z,100941.55
2023-05-09T14:42:47.824Z,100940.01
2023-05-09T14:45:31.914Z,100933.88
2023-05-09T14:48:17.725Z,100928.73
2023-05-09T14:51:06.675Z,100925.66
2023-05-09T14:53:49.954Z,100925.40
2023-05-09T14:56:27.104Z,100920.39
2023-05-09T14:59:14.678Z,100915.28
2023-05-09T15:01:47.425Z,100922.41
2023-05-09T15:04:22.193Z,100917.51
2023-05-09T15:07:46.253Z,100918.66
2023-05-09T15:14:06.855Z,100901.27
2023-05-09T15:16:41.793Z,100895.20
2023-05-09T15:19:26.857Z,100899.04
2023-05-09T15:22:04.620Z,100892.70
2023-05-09T15:24:47.138Z,100892.94
2023-05-09T15:27:20.497Z,100890.24
2023-05-09T15:30:14.661Z,100890.92
2023-05-09T15:32:59.736Z,100881.99
2023-05-09T15:35:39.565Z,100879.54
2023-05-09T15:38:21.472Z,100882.09
2023-05-09T15:41:25.135Z,100881.23
2023-05-09T15:44:54.961Z,100878.55
2023-05-09T15:52:06.221Z,100875.36
2023-05-09T15:58:23.641Z,100861.52
2023-05-09T16:01:58.895Z,100854.17
2023-05-09T16:04:49.574Z,100852.79
2023-05-09T16:10:31.331Z,100843.92
2023-05-09T16:13:03.589Z,100844.27
2023-05-09T16:15:35.830Z,100839.61
2023-05-09T16:18:08.073Z,100835.61
2023-05-09T16:20:39.960Z,100831.82
2023-05-09T16:23:11.869Z,100827.35
2023-05-09T16:25:46.339Z,100826.20
2023-05-09T16:28:19.659Z,100830.20
2023-05-09T16:30:52.391Z,100826.17
2023-05-09T16:33:24.201Z,100823.65
2023-05-09T16:35:56.949Z,100819.33
2023-05-09T16:38:29.114Z,100819.41
2023-05-09T16:41:00.931Z,100814.90
2023-05-09T16:43:32.870Z,100816.80
2023-05-09T16:46:08.032Z,100808.58
2023-05-09T16:48:39.896Z,100809.73
2023-05-09T16:51:12.168Z,100808.11
2023-05-09T16:53:44.000Z,100803.80
2023-05-09T16:56:15.760Z,100804.48
2023-05-09T16:58:49.614Z,100797.78
2023-05-09T17:01:22.556Z,100798.18
2023-05-09T17:03:54.366Z,100793.89
2023-05-09T17:06:26.592Z,100791.95
2023-05-09T17:08:58.226Z,100798.73
2023-05-09T17:11:30.628Z,100797.48
2023-05-09T17:14:03.197Z,100794.48
2023-05-09T17:16:37.960Z,100792.64
2023-05-09T17:19:09.958Z,100791.92
2023-05-09T17:21:42.343Z,100793.71
2023-05-09T17:24:14.181Z,100790.52
2023-05-09T17:26:47.311Z,100790.02
2023-05-09T17:29:22.285Z,100789.66
2023-05-09T17:31:54.051Z,100783.52
2023-05-09T17:34:28.103Z,100782.59
2023-05-09T17:37:04.139Z,100783.02
2023-05-09T17:39:45.864Z,100785.57
2023-05-09T17:42:19.991Z,100785.19
2023-05-09T17:44:52.418Z,100782.05
2023-05-09T17:47:32.297Z,100780.61
2023-05-09T17:50:05.396Z,100779.45
2023-05-09T17:52:37.710Z,100779.01
2023-05-09T17:55:10.696Z,100780.98
2023-05-09T17:57:43.557Z,100782.33
2023-05-09T18:00:18.573Z,100784.12
2023-05-09T18:02:51.362Z,100786.45
2023-05-09T18:05:24.164Z,100784.42
2023-05-09T18:07:57.206Z,100783.98
2023-05-09T18:10:28.936Z,100783.27
2023-05-09T18:13:01.256Z,100785.16
2023-05-09T18:15:38.100Z,100786.05
2023-05-09T18:18:12.874Z,100782.38
2023-05-09T18:20:47.411Z,100783.59
2023-05-09T18:23:19.419Z,100785.02
2023-05-09T18:25:51.336Z,100784.59
2023-05-09T18:28:26.169Z,100784.23
2023-05-09T18:30:59.864Z,100783.16
2023-05-09T18:33:32.162Z,100781.84
2023-05-09T18:36:05.007Z,100783.25
2023-05-09T18:38:38.750Z,100783.67
2023-05-09T18:41:12.036Z,100792.42
2023-05-09T18:43:47.527Z,100795.02
2023-05-09T18:46:21.615Z,100794.98
2023-05-09T18:48:54.702Z,100790.76
2023-05-09T18:51:26.556Z,100790.75
2023-05-09T18:53:58.186Z,100797.27
2023-05-09T18:56:30.225Z,100800.65
2023-05-09T18:59:03.070Z,100798.77
2023-05-09T19:01:34.727Z,100798.69
2023-05-09T19:04:07.810Z,100796.54
2023-05-09T19:06:40.590Z,100793.80
2023-05-09T19:09:13.973Z,100793.86
2023-05-09T19:11:46.023Z,100792.30
2023-05-09T19:14:18.832Z,100792.81
2023-05-09T19:16:51.198Z,100797.41
2023-05-09T19:19:25.048Z,100797.95
2023-05-09T19:22:00.397Z,100793.45
2023-05-09T19:24:36.289Z,100794.67
2023-05-09T19:27:10.339Z,100793.60
2023-05-09T19:29:43.111Z,100795.92
2023-05-09T19:32:19.860Z,100792.14
2023-05-09T19:34:59.546Z,100793.24
2023-05-09T19:37:36.400Z,100789.85
2023-05-09T19:40:11.846Z,100787.94
2023-05-09T19:42:46.685Z,100785.79
2023-05-09T19:45:22.664Z,100784.33
2023-05-09T19:47:59.088Z,100779.48
2023-05-09T19:50:33.262Z,100786.08
2023-05-09T19:53:05.492Z,100781.63
2023-05-09T19:55:38.396Z,100782.00
2023-05-09T19:58:12.000Z,100784.48
2023-05-09T20:00:43.951Z,100783.08
2023-05-09T20:03:17.299Z,100779.50
2023-05-09T20:11:35.354Z,100783.93
2023-05-09T20:14:08.055Z,100780.64
2023-05-09T20:16:41.139Z,100779.45
2023-05-09T20:19:16.906Z,100777.58
2023-05-09T20:21:51.352Z,100777.90
2023-05-09T20:24:29.440Z,100777.98
2023-05-09T20:27:03.782Z,100772.73
2023-05-09T20:29:37.864Z,100774.98
2023-05-09T20:32:12.298Z,100777.91
2023-05-09T20:34:47.005Z,100777.16
2023-05-09T20:37:18.872Z,100775.67
2023-05-09T20:39:51.931Z,100775.13
2023-05-09T20:42:26.819Z,100780.00
2023-05-09T20:45:05.557Z,100777.15
2023-05-09T20:47:38.486Z,100777.33
2023-05-09T20:50:12.801Z,100778.58
2023-05-09T20:52:44.727Z,100774.34
2023-05-09T20:55:18.658Z,100772.71
2023-05-09T20:57:50.735Z,100773.60
2023-05-09T21:00:22.865Z,100778.17
2023-05-09T21:02:58.611Z,100778.23
2023-05-09T21:05:32.379Z,100776.29
2023-05-09T21:08:04.297Z,100776.95
2023-05-09T21:10:36.602Z,100774.73
2023-05-09T21:13:08.416Z,100778.46
2023-05-09T21:15:40.074Z,100780.91
2023-05-09T21:18:12.074Z,100781.59
2023-05-09T21:20:45.370Z,100774.63
2023-05-09T21:23:18.840Z,100775.20
2023-05-09T21:25:50.777Z,100771.42
2023-05-09T21:28:22.277Z,100771.30
2023-05-09T21:30:55.513Z,100773.67
2023-05-09T21:33:27.587Z,100766.75
2023-05-09T21:35:59.637Z,100769.55
2023-05-09T21:38:31.632Z,100762.77
2023-05-09T21:41:03.510Z,100766.15
2023-05-09T21:43:35.664Z,100767.13
2023-05-09T21:46:08.951Z,100768.74
2023-05-09T21:48:40.632Z,100770.55
2023-05-09T21:51:13.129Z,100767.27
2023-05-09T21:53:44.743Z,100765.95
2023-05-09T21:56:17.035Z,100766.90
2023-05-09T21:58:48.595Z,100765.35
2023-05-09T22:01:22.220Z,100766.02
2023-05-09T22:03:54.017Z,100763.00
2023-05-09T22:06:25.682Z,100765.20
2023-05-09T22:08:57.188Z,100767.50
2023-05-09T22:11:28.709Z,100764.41
2023-05-09T22:14:00.725Z,100762.89
2023-05-09T22:16:33.626Z,100762.35
2023-05-09T22:19:05.143Z,100762.86
2023-05-09T22:21:36.647Z,100761.73
2023-05-09T22:24:09.000Z,100760.02
2023-05-09T22:26:40.702Z,100759.81
2023-05-09T22:29:12.115Z,100756.71
2023-05-09T22:31:51.473Z,100754.08
2023-05-09T22:34:23.440Z,100756.66
2023-05-09T22:36:55.846Z,100750.02
2023-05-09T22:39:27.467Z,100754.55
2023-05-09T22:41:59.081Z,100750.88
2023-05-09T22:44:30.400Z,100746.63
2023-05-09T22:47:01.900Z,100744.58
2023-05-09T22:49:33.412Z,100747.96
2023-05-09T22:52:04.995Z,100743.91
2023-05-09T22:54:36.499Z,100743.98
2023-05-09T22:57:08.285Z,100743.52
2023-05-09T22:59:39.845Z,100742.01
2023-05-09T23:02:12.622Z,100742.37
2023-05-09T23:04:44.094Z,100741.91
2023-05-09T23:07:16.315Z,100738.58
2023-05-09T23:09:47.760Z,100732.67
2023-05-09T23:12:19.203Z,100728.36
2023-05-09T23:14:50.993Z,100723.02
2023-05-09T23:17:23.314Z,100722.51
2023-05-09T23:19:55.645Z,100722.01
2023-05-09T23:22:27.901Z,100723.63
2023-05-09T23:25:01.205Z,100723.81
2023-05-09T23:27:33.684Z,100717.07
2023-05-09T23:30:06.315Z,100719.85
2023-05-09T23:32:38.681Z,100721.39
2023-05-09T23:35:11.720Z,100719.30
2023-05-09T23:37:43.508Z,100717.02
2023-05-09T23:40:16.778Z,100714.31
2023-05-09T23:42:48.481Z,100714.89
2023-05-09T23:45:20.273Z,100712.97
2023-05-09T23:47:52.256Z,100711.27
2023-05-09T23:50:25.256Z,100708.30
2023-05-09T23:52:57.347Z,100706.98
2023-05-09T23:55:29.483Z,100706.23
2023-05-09T23:58:01.038Z,100701.16
